sensor_id;sensor_type;location;lat;lon;timestamp;temperature;humidity
1021;DHT22;499;42.648;23.270;2022-09-09T00:02:01;17.00;97.70
1021;DHT22;499;42.648;23.270;2022-09-09T00:04:31;17.00;97.40
1021;DHT22;499;42.648;23.270;2022-09-09T00:07:04;16.90;96.50
1021;DHT22;499;42.648;23.270;2022-09-09T00:09:40;16.90;97.10
1021;DHT22;499;42.648;23.270;2022-09-09T00:12:12;16.70;97.70
1021;DHT22;499;42.648;23.270;2022-09-09T00:14:48;16.70;98.90
1021;DHT22;499;42.648;23.270;2022-09-09T00:17:25;16.60;98.50
1021;DHT22;499;42.648;23.270;2022-09-09T00:19:56;16.60;98.70
1021;DHT22;499;42.648;23.270;2022-09-09T00:22:28;16.70;98.10
1021;DHT22;499;42.648;23.270;2022-09-09T00:25:03;16.60;97.50
1021;DHT22;499;42.648;23.270;2022-09-09T00:27:40;16.60;98.60
1021;DHT22;499;42.648;23.270;2022-09-09T00:30:16;16.50;99.50
1021;DHT22;499;42.648;23.270;2022-09-09T00:32:45;16.60;98.80
1021;DHT22;499;42.648;23.270;2022-09-09T00:35:18;16.60;97.70
1021;DHT22;499;42.648;23.270;2022-09-09T00:37:47;16.50;99.00
1021;DHT22;499;42.648;23.270;2022-09-09T00:40:23;16.50;99.50
1021;DHT22;499;42.648;23.270;2022-09-09T00:43:00;16.50;98.80
1021;DHT22;499;42.648;23.270;2022-09-09T00:45:49;16.60;98.90
1021;DHT22;499;42.648;23.270;2022-09-09T00:48:24;16.50;98.30
1021;DHT22;499;42.648;23.270;2022-09-09T00:50:57;16.40;99.50
1021;DHT22;499;42.648;23.270;2022-09-09T00:53:38;16.30;99.90
1021;DHT22;499;42.648;23.270;2022-09-09T00:56:13;16.40;99.90
1021;DHT22;499;42.648;23.270;2022-09-09T00:58:43;16.30;99.90
1021;DHT22;499;42.648;23.270;2022-09-09T01:01:16;16.30;99.90
1021;DHT22;499;42.648;23.270;2022-09-09T01:03:46;16.30;99.90
1021;DHT22;499;42.648;23.270;2022-09-09T01:06:20;16.30;99.90
1021;DHT22;499;42.648;23.270;2022-09-09T01:09:10;16.30;99.90
1021;DHT22;499;42.648;23.270;2022-09-09T01:11:51;16.40;99.70
1021;DHT22;499;42.648;23.270;2022-09-09T01:14:35;16.30;99.30
1021;DHT22;499;42.648;23.270;2022-09-09T01:17:11;16.20;99.90
1021;DHT22;499;42.648;23.270;2022-09-09T01:19:49;16.30;99.90
1021;DHT22;499;42.648;23.270;2022-09-09T01:22:24;16.30;99.90
1021;DHT22;499;42.648;23.270;2022-09-09T01:25:11;16.30;99.90
1021;DHT22;499;42.648;23.270;2022-09-09T01:27:43;16.20;99.90
1021;DHT22;499;42.648;23.270;2022-09-09T01:30:13;16.30;99.90
1021;DHT22;499;42.648;23.270;2022-09-09T01:32:43;16.30;99.90
1021;DHT22;499;42.648;23.270;2022-09-09T01:35:22;16.30;99.90
1021;DHT22;499;42.648;23.270;2022-09-09T01:37:54;16.30;99.90
1021;DHT22;499;42.648;23.270;2022-09-09T01:40:22;16.30;99.90
1021;DHT22;499;42.648;23.270;2022-09-09T01:42:52;16.10;99.90
1021;DHT22;499;42.648;23.270;2022-09-09T01:45:19;16.10;99.90
1021;DHT22;499;42.648;23.270;2022-09-09T01:47:48;16.20;99.90
1021;DHT22;499;42.648;23.270;2022-09-09T01:50:16;16.10;99.90
1021;DHT22;499;42.648;23.270;2022-09-09T01:52:44;16.30;99.90
1021;DHT22;499;42.648;23.270;2022-09-09T01:55:12;16.30;99.90
1021;DHT22;499;42.648;23.270;2022-09-09T01:57:43;16.20;99.90
1021;DHT22;499;42.648;23.270;2022-09-09T02:00:14;16.20;99.90
1021;DHT22;499;42.648;23.270;2022-09-09T02:02:47;16.20;99.90
1021;DHT22;499;42.648;23.270;2022-09-09T02:05:24;16.10;99.90
1021;DHT22;499;42.648;23.270;2022-09-09T02:08:00;16.10;99.90
1021;DHT22;499;42.648;23.270;2022-09-09T02:10:32;16.20;99.90
1021;DHT22;499;42.648;23.270;2022-09-09T02:13:04;16.20;99.90
1021;DHT22;499;42.648;23.270;2022-09-09T02:15:35;16.10;99.90
1021;DHT22;499;42.648;23.270;2022-09-09T02:18:08;16.00;99.90
1021;DHT22;499;42.648;23.270;2022-09-09T02:20:38;16.00;99.90
1021;DHT22;499;42.648;23.270;2022-09-09T02:23:07;15.90;99.90
1021;DHT22;499;42.648;23.270;2022-09-09T02:25:37;15.90;99.90
1021;DHT22;499;42.648;23.270;2022-09-09T02:28:06;16.00;99.90
1021;DHT22;499;42.648;23.270;2022-09-09T02:30:38;16.00;99.90
1021;DHT22;499;42.648;23.270;2022-09-09T02:33:07;16.10;99.90
1021;DHT22;499;42.648;23.270;2022-09-09T02:35:36;16.00;99.90
1021;DHT22;499;42.648;23.270;2022-09-09T02:38:07;15.90;99.90
1021;DHT22;499;42.648;23.270;2022-09-09T02:40:35;15.90;99.90
1021;DHT22;499;42.648;23.270;2022-09-09T02:43:02;15.90;99.90
1021;DHT22;499;42.648;23.270;2022-09-09T02:45:36;15.90;99.90
1021;DHT22;499;42.648;23.270;2022-09-09T02:48:14;15.80;99.90
1021;DHT22;499;42.648;23.270;2022-09-09T02:50:48;15.90;99.90
1021;DHT22;499;42.648;23.270;2022-09-09T02:53:19;15.80;99.90
1021;DHT22;499;42.648;23.270;2022-09-09T02:55:48;15.90;99.90
1021;DHT22;499;42.648;23.270;2022-09-09T02:58:20;15.80;99.90
1021;DHT22;499;42.648;23.270;2022-09-09T03:00:50;15.80;99.90
1021;DHT22;499;42.648;23.270;2022-09-09T03:03:18;15.90;99.90
1021;DHT22;499;42.648;23.270;2022-09-09T03:05:47;15.90;99.90
1021;DHT22;499;42.648;23.270;2022-09-09T03:08:15;15.80;99.90
1021;DHT22;499;42.648;23.270;2022-09-09T03:10:42;15.90;99.90
1021;DHT22;499;42.648;23.270;2022-09-09T03:13:10;15.90;99.90
1021;DHT22;499;42.648;23.270;2022-09-09T03:15:38;15.90;99.90
1021;DHT22;499;42.648;23.270;2022-09-09T03:18:07;15.90;99.90
1021;DHT22;499;42.648;23.270;2022-09-09T03:20:34;15.90;99.90
1021;DHT22;499;42.648;23.270;2022-09-09T03:23:02;15.90;99.90
1021;DHT22;499;42.648;23.270;2022-09-09T03:25:29;15.80;99.90
1021;DHT22;499;42.648;23.270;2022-09-09T03:27:57;15.70;99.90
1021;DHT22;499;42.648;23.270;2022-09-09T03:30:26;15.50;99.90
1021;DHT22;499;42.648;23.270;2022-09-09T03:32:54;15.60;99.90
1021;DHT22;499;42.648;23.270;2022-09-09T03:35:23;15.70;99.90
1021;DHT22;499;42.648;23.270;2022-09-09T03:37:53;15.80;99.90
1021;DHT22;499;42.648;23.270;2022-09-09T03:40:21;15.80;99.90
1021;DHT22;499;42.648;23.270;2022-09-09T03:42:48;15.70;99.90
1021;DHT22;499;42.648;23.270;2022-09-09T03:45:15;15.70;99.90
1021;DHT22;499;42.648;23.270;2022-09-09T03:47:42;15.70;99.90
1021;DHT22;499;42.648;23.270;2022-09-09T03:50:10;15.70;99.90
1021;DHT22;499;42.648;23.270;2022-09-09T03:52:40;15.70;99.90
1021;DHT22;499;42.648;23.270;2022-09-09T03:55:08;15.80;99.90
1021;DHT22;499;42.648;23.270;2022-09-09T03:57:35;15.70;99.90
1021;DHT22;499;42.648;23.270;2022-09-09T04:00:03;15.70;99.90
1021;DHT22;499;42.648;23.270;2022-09-09T04:02:30;15.70;99.90
1021;DHT22;499;42.648;23.270;2022-09-09T04:04:57;15.70;99.90
1021;DHT22;499;42.648;23.270;2022-09-09T04:07:25;15.80;99.90
1021;DHT22;499;42.648;23.270;2022-09-09T04:09:54;15.80;99.90
1021;DHT22;499;42.648;23.270;2022-09-09T04:12:21;15.80;99.90
1021;DHT22;499;42.648;23.270;2022-09-09T04:14:48;15.70;99.90
1021;DHT22;499;42.648;23.270;2022-09-09T04:17:15;15.70;99.90
1021;DHT22;499;42.648;23.270;2022-09-09T04:19:43;15.70;99.90
1021;DHT22;499;42.648;23.270;2022-09-09T04:22:10;15.70;99.90
1021;DHT22;499;42.648;23.270;2022-09-09T04:24:37;15.80;99.90
1021;DHT22;499;42.648;23.270;2022-09-09T04:27:05;16.00;99.90
1021;DHT22;499;42.648;23.270;2022-09-09T04:29:32;15.90;99.90
1021;DHT22;499;42.648;23.270;2022-09-09T04:32:00;15.80;99.90
1021;DHT22;499;42.648;23.270;2022-09-09T04:34:27;15.90;99.90
1021;DHT22;499;42.648;23.270;2022-09-09T04:36:55;15.90;99.90
1021;DHT22;499;42.648;23.270;2022-09-09T04:39:22;16.10;99.90
1021;DHT22;499;42.648;23.270;2022-09-09T04:41:50;16.20;99.90
1021;DHT22;499;42.648;23.270;2022-09-09T04:44:18;16.20;99.90
1021;DHT22;499;42.648;23.270;2022-09-09T04:46:45;16.30;99.90
1021;DHT22;499;42.648;23.270;2022-09-09T04:49:12;16.40;99.90
1021;DHT22;499;42.648;23.270;2022-09-09T04:51:39;16.50;99.90
1021;DHT22;499;42.648;23.270;2022-09-09T04:54:06;16.60;99.90
1021;DHT22;499;42.648;23.270;2022-09-09T04:56:33;16.70;99.90
1021;DHT22;499;42.648;23.270;2022-09-09T04:59:01;16.70;99.90
1021;DHT22;499;42.648;23.270;2022-09-09T05:01:31;16.60;99.60
1021;DHT22;499;42.648;23.270;2022-09-09T05:03:58;16.60;99.90
1021;DHT22;499;42.648;23.270;2022-09-09T05:06:25;16.70;99.60
1021;DHT22;499;42.648;23.270;2022-09-09T05:08:53;16.90;95.70
1021;DHT22;499;42.648;23.270;2022-09-09T05:11:21;17.00;94.30
1021;DHT22;499;42.648;23.270;2022-09-09T05:13:49;16.90;92.20
1021;DHT22;499;42.648;23.270;2022-09-09T05:16:17;17.00;93.80
1021;DHT22;499;42.648;23.270;2022-09-09T05:18:46;17.20;93.50
1021;DHT22;499;42.648;23.270;2022-09-09T05:21:15;17.30;93.50
1021;DHT22;499;42.648;23.270;2022-09-09T05:23:44;17.40;93.90
1021;DHT22;499;42.648;23.270;2022-09-09T05:26:14;17.50;94.00
1021;DHT22;499;42.648;23.270;2022-09-09T05:28:41;17.70;92.00
1021;DHT22;499;42.648;23.270;2022-09-09T05:31:09;17.70;91.30
1021;DHT22;499;42.648;23.270;2022-09-09T05:33:38;17.70;90.20
1021;DHT22;499;42.648;23.270;2022-09-09T05:36:08;17.90;91.30
1021;DHT22;499;42.648;23.270;2022-09-09T05:38:36;18.10;85.70
1021;DHT22;499;42.648;23.270;2022-09-09T05:41:03;18.10;85.10
1021;DHT22;499;42.648;23.270;2022-09-09T05:43:31;18.20;85.20
1021;DHT22;499;42.648;23.270;2022-09-09T05:46:02;18.20;84.20
1021;DHT22;499;42.648;23.270;2022-09-09T05:48:30;18.30;80.60
1021;DHT22;499;42.648;23.270;2022-09-09T05:50:58;18.30;77.60
1021;DHT22;499;42.648;23.270;2022-09-09T05:53:27;18.30;76.40
1021;DHT22;499;42.648;23.270;2022-09-09T05:56:01;18.30;77.20
1021;DHT22;499;42.648;23.270;2022-09-09T05:58:30;18.30;71.50
1021;DHT22;499;42.648;23.270;2022-09-09T06:01:04;18.30;74.50
1021;DHT22;499;42.648;23.270;2022-09-09T06:03:32;18.30;74.20
1021;DHT22;499;42.648;23.270;2022-09-09T06:06:00;18.30;72.50
1021;DHT22;499;42.648;23.270;2022-09-09T06:08:32;18.40;67.10
1021;DHT22;499;42.648;23.270;2022-09-09T06:11:03;18.60;67.50
1021;DHT22;499;42.648;23.270;2022-09-09T06:13:31;18.70;66.70
1021;DHT22;499;42.648;23.270;2022-09-09T06:15:58;18.70;65.90
1021;DHT22;499;42.648;23.270;2022-09-09T06:18:26;18.80;64.40
1021;DHT22;499;42.648;23.270;2022-09-09T06:20:54;18.90;62.60
1021;DHT22;499;42.648;23.270;2022-09-09T06:23:22;18.90;62.20
1021;DHT22;499;42.648;23.270;2022-09-09T06:25:50;18.90;64.10
1021;DHT22;499;42.648;23.270;2022-09-09T06:28:17;19.00;62.30
1021;DHT22;499;42.648;23.270;2022-09-09T06:30:44;19.10;62.40
1021;DHT22;499;42.648;23.270;2022-09-09T06:33:12;19.30;64.70
1021;DHT22;499;42.648;23.270;2022-09-09T06:35:40;19.30;58.80
1021;DHT22;499;42.648;23.270;2022-09-09T06:38:07;19.30;59.20
1021;DHT22;499;42.648;23.270;2022-09-09T06:40:34;19.30;56.60
1021;DHT22;499;42.648;23.270;2022-09-09T06:43:03;19.30;57.80
1021;DHT22;499;42.648;23.270;2022-09-09T06:45:31;19.50;58.00
1021;DHT22;499;42.648;23.270;2022-09-09T06:47:58;19.80;55.80
1021;DHT22;499;42.648;23.270;2022-09-09T06:50:25;19.80;52.80
1021;DHT22;499;42.648;23.270;2022-09-09T06:52:53;20.10;51.30
1021;DHT22;499;42.648;23.270;2022-09-09T06:55:20;20.10;49.30
1021;DHT22;499;42.648;23.270;2022-09-09T06:57:47;20.20;46.70
1021;DHT22;499;42.648;23.270;2022-09-09T07:00:16;20.30;44.80
1021;DHT22;499;42.648;23.270;2022-09-09T07:02:43;20.40;43.10
1021;DHT22;499;42.648;23.270;2022-09-09T07:05:10;20.40;46.90
1021;DHT22;499;42.648;23.270;2022-09-09T07:07:37;20.40;43.30
1021;DHT22;499;42.648;23.270;2022-09-09T07:10:05;20.50;43.60
1021;DHT22;499;42.648;23.270;2022-09-09T07:12:33;20.40;41.90
1021;DHT22;499;42.648;23.270;2022-09-09T07:15:00;20.50;44.40
1021;DHT22;499;42.648;23.270;2022-09-09T07:17:28;20.60;44.30
1021;DHT22;499;42.648;23.270;2022-09-09T07:19:55;20.80;39.60
1021;DHT22;499;42.648;23.270;2022-09-09T07:22:23;20.90;39.60
1021;DHT22;499;42.648;23.270;2022-09-09T07:24:50;20.80;38.50
1021;DHT22;499;42.648;23.270;2022-09-09T07:27:17;21.00;40.80
1021;DHT22;499;42.648;23.270;2022-09-09T07:29:44;21.20;38.70
1021;DHT22;499;42.648;23.270;2022-09-09T07:32:12;21.30;36.30
1021;DHT22;499;42.648;23.270;2022-09-09T07:34:40;21.20;34.70
1021;DHT22;499;42.648;23.270;2022-09-09T07:37:07;21.20;38.80
1021;DHT22;499;42.648;23.270;2022-09-09T07:39:37;21.40;37.20
1021;DHT22;499;42.648;23.270;2022-09-09T07:42:05;21.50;34.60
1021;DHT22;499;42.648;23.270;2022-09-09T07:44:32;21.90;36.40
1021;DHT22;499;42.648;23.270;2022-09-09T07:47:00;22.20;35.30
1021;DHT22;499;42.648;23.270;2022-09-09T07:49:28;22.50;32.90
1021;DHT22;499;42.648;23.270;2022-09-09T07:51:56;22.70;29.10
1021;DHT22;499;42.648;23.270;2022-09-09T07:54:23;22.50;29.40
1021;DHT22;499;42.648;23.270;2022-09-09T07:56:52;22.80;29.70
1021;DHT22;499;42.648;23.270;2022-09-09T07:59:19;22.80;29.30
1021;DHT22;499;42.648;23.270;2022-09-09T08:01:48;23.00;29.70
1021;DHT22;499;42.648;23.270;2022-09-09T08:04:20;23.10;28.20
1021;DHT22;499;42.648;23.270;2022-09-09T08:06:49;23.20;28.20
1021;DHT22;499;42.648;23.270;2022-09-09T08:09:20;23.20;27.00
1021;DHT22;499;42.648;23.270;2022-09-09T08:11:47;23.40;26.90
1021;DHT22;499;42.648;23.270;2022-09-09T08:14:15;23.60;26.40
1021;DHT22;499;42.648;23.270;2022-09-09T08:16:43;23.60;26.50
1021;DHT22;499;42.648;23.270;2022-09-09T08:19:11;23.40;25.60
1021;DHT22;499;42.648;23.270;2022-09-09T08:21:39;23.60;26.10
1021;DHT22;499;42.648;23.270;2022-09-09T08:24:08;23.50;25.60
1021;DHT22;499;42.648;23.270;2022-09-09T08:26:39;23.60;24.40
1021;DHT22;499;42.648;23.270;2022-09-09T08:29:08;23.90;24.70
1021;DHT22;499;42.648;23.270;2022-09-09T08:31:37;24.10;25.90
1021;DHT22;499;42.648;23.270;2022-09-09T08:34:04;24.40;22.90
1021;DHT22;499;42.648;23.270;2022-09-09T08:36:33;24.40;22.20
1021;DHT22;499;42.648;23.270;2022-09-09T08:39:02;24.00;22.90
1021;DHT22;499;42.648;23.270;2022-09-09T08:41:42;24.10;22.80
1021;DHT22;499;42.648;23.270;2022-09-09T08:44:20;24.10;22.90
1021;DHT22;499;42.648;23.270;2022-09-09T08:46:55;24.00;23.40
1021;DHT22;499;42.648;23.270;2022-09-09T08:49:46;24.10;22.60
1021;DHT22;499;42.648;23.270;2022-09-09T08:52:19;24.00;22.50
1021;DHT22;499;42.648;23.270;2022-09-09T08:54:48;24.10;23.10
1021;DHT22;499;42.648;23.270;2022-09-09T08:57:20;24.30;23.30
1021;DHT22;499;42.648;23.270;2022-09-09T08:59:50;24.50;22.30
1021;DHT22;499;42.648;23.270;2022-09-09T09:02:20;24.80;21.90
1021;DHT22;499;42.648;23.270;2022-09-09T09:04:58;24.90;22.00
1021;DHT22;499;42.648;23.270;2022-09-09T09:07:40;25.00;21.00
1021;DHT22;499;42.648;23.270;2022-09-09T09:10:15;25.00;21.50
1021;DHT22;499;42.648;23.270;2022-09-09T09:12:48;25.20;21.30
1021;DHT22;499;42.648;23.270;2022-09-09T09:15:19;25.20;19.70
1021;DHT22;499;42.648;23.270;2022-09-09T09:17:47;24.90;19.00
1021;DHT22;499;42.648;23.270;2022-09-09T09:20:17;25.00;19.20
1021;DHT22;499;42.648;23.270;2022-09-09T09:22:48;25.10;19.20
1021;DHT22;499;42.648;23.270;2022-09-09T09:25:19;25.10;20.00
1021;DHT22;499;42.648;23.270;2022-09-09T09:27:56;25.30;19.50
1021;DHT22;499;42.648;23.270;2022-09-09T09:30:26;25.60;18.40
1021;DHT22;499;42.648;23.270;2022-09-09T09:33:00;25.70;17.80
1021;DHT22;499;42.648;23.270;2022-09-09T09:35:28;25.80;17.30
1021;DHT22;499;42.648;23.270;2022-09-09T09:37:55;25.80;17.30
1021;DHT22;499;42.648;23.270;2022-09-09T09:40:23;25.60;17.40
1021;DHT22;499;42.648;23.270;2022-09-09T09:42:56;25.60;17.90
1021;DHT22;499;42.648;23.270;2022-09-09T09:45:28;25.60;16.60
1021;DHT22;499;42.648;23.270;2022-09-09T09:48:02;25.60;17.80
1021;DHT22;499;42.648;23.270;2022-09-09T09:50:30;25.80;18.00
1021;DHT22;499;42.648;23.270;2022-09-09T09:53:00;25.90;17.30
1021;DHT22;499;42.648;23.270;2022-09-09T09:55:31;25.90;17.30
1021;DHT22;499;42.648;23.270;2022-09-09T09:58:05;26.00;16.90
1021;DHT22;499;42.648;23.270;2022-09-09T10:00:33;26.00;17.30
1021;DHT22;499;42.648;23.270;2022-09-09T10:03:01;26.00;16.10
1021;DHT22;499;42.648;23.270;2022-09-09T10:05:45;25.90;15.70
1021;DHT22;499;42.648;23.270;2022-09-09T10:08:14;26.00;16.00
1021;DHT22;499;42.648;23.270;2022-09-09T10:10:59;25.90;15.90
1021;DHT22;499;42.648;23.270;2022-09-09T10:13:36;25.70;16.50
1021;DHT22;499;42.648;23.270;2022-09-09T10:16:20;25.50;15.90
1021;DHT22;499;42.648;23.270;2022-09-09T10:18:58;25.40;17.00
1021;DHT22;499;42.648;23.270;2022-09-09T10:21:49;25.50;17.70
1021;DHT22;499;42.648;23.270;2022-09-09T10:24:40;25.60;17.70
1021;DHT22;499;42.648;23.270;2022-09-09T10:27:16;25.60;16.50
1021;DHT22;499;42.648;23.270;2022-09-09T10:29:56;25.50;15.90
1021;DHT22;499;42.648;23.270;2022-09-09T10:32:37;25.50;16.00
1021;DHT22;499;42.648;23.270;2022-09-09T10:35:10;25.40;16.50
1021;DHT22;499;42.648;23.270;2022-09-09T10:40:39;25.60;17.70
1021;DHT22;499;42.648;23.270;2022-09-09T10:43:21;25.50;16.20
1021;DHT22;499;42.648;23.270;2022-09-09T10:45:57;25.60;16.20
1021;DHT22;499;42.648;23.270;2022-09-09T10:48:32;25.50;16.40
1021;DHT22;499;42.648;23.270;2022-09-09T10:51:17;25.60;16.50
1021;DHT22;499;42.648;23.270;2022-09-09T10:53:53;25.70;16.30
1021;DHT22;499;42.648;23.270;2022-09-09T10:56:23;25.90;16.40
1021;DHT22;499;42.648;23.270;2022-09-09T10:58:54;25.80;17.10
1021;DHT22;499;42.648;23.270;2022-09-09T11:01:27;25.70;17.50
1021;DHT22;499;42.648;23.270;2022-09-09T11:04:00;25.80;17.90
1021;DHT22;499;42.648;23.270;2022-09-09T11:06:32;25.70;17.80
1021;DHT22;499;42.648;23.270;2022-09-09T11:09:02;25.70;18.30
1021;DHT22;499;42.648;23.270;2022-09-09T11:11:34;25.50;19.90
1021;DHT22;499;42.648;23.270;2022-09-09T11:14:09;25.50;20.60
1021;DHT22;499;42.648;23.270;2022-09-09T11:16:42;25.40;21.70
1021;DHT22;499;42.648;23.270;2022-09-09T11:19:17;25.40;21.70
1021;DHT22;499;42.648;23.270;2022-09-09T11:21:48;25.60;21.90
1021;DHT22;499;42.648;23.270;2022-09-09T11:24:23;25.80;21.70
1021;DHT22;499;42.648;23.270;2022-09-09T11:26:54;25.90;21.70
1021;DHT22;499;42.648;23.270;2022-09-09T11:32:59;26.30;22.20
1021;DHT22;499;42.648;23.270;2022-09-09T11:35:33;26.50;18.20
1021;DHT22;499;42.648;23.270;2022-09-09T11:38:16;26.50;17.80
1021;DHT22;499;42.648;23.270;2022-09-09T11:40:45;26.60;18.30
1021;DHT22;499;42.648;23.270;2022-09-09T11:43:15;26.70;18.80
1021;DHT22;499;42.648;23.270;2022-09-09T11:45:50;26.70;18.30
1021;DHT22;499;42.648;23.270;2022-09-09T11:48:34;26.60;18.00
1021;DHT22;499;42.648;23.270;2022-09-09T11:51:07;26.60;18.30
1021;DHT22;499;42.648;23.270;2022-09-09T11:53:35;26.50;18.20
1021;DHT22;499;42.648;23.270;2022-09-09T11:56:13;26.60;18.30
1021;DHT22;499;42.648;23.270;2022-09-09T11:58:55;26.80;17.00
1021;DHT22;499;42.648;23.270;2022-09-09T12:01:28;26.80;17.50
1021;DHT22;499;42.648;23.270;2022-09-09T12:06:51;26.80;16.10
1021;DHT22;499;42.648;23.270;2022-09-09T12:09:28;26.80;17.10
1021;DHT22;499;42.648;23.270;2022-09-09T12:12:27;26.70;17.60
1021;DHT22;499;42.648;23.270;2022-09-09T12:14:58;26.80;16.90
1021;DHT22;499;42.648;23.270;2022-09-09T12:17:27;26.60;16.30
1021;DHT22;499;42.648;23.270;2022-09-09T12:20:11;26.60;17.70
1021;DHT22;499;42.648;23.270;2022-09-09T12:22:57;26.70;16.80
1021;DHT22;499;42.648;23.270;2022-09-09T12:25:31;26.70;17.40
1021;DHT22;499;42.648;23.270;2022-09-09T12:28:14;26.70;18.20
1021;DHT22;499;42.648;23.270;2022-09-09T12:30:49;26.80;17.40
1021;DHT22;499;42.648;23.270;2022-09-09T12:33:18;26.70;17.70
1021;DHT22;499;42.648;23.270;2022-09-09T12:35:52;26.70;16.00
1021;DHT22;499;42.648;23.270;2022-09-09T12:38:26;26.50;17.30
1021;DHT22;499;42.648;23.270;2022-09-09T12:40:56;26.50;18.40
1021;DHT22;499;42.648;23.270;2022-09-09T12:43:26;26.60;18.10
1021;DHT22;499;42.648;23.270;2022-09-09T12:45:56;26.70;17.80
1021;DHT22;499;42.648;23.270;2022-09-09T12:48:31;26.90;17.60
1021;DHT22;499;42.648;23.270;2022-09-09T12:51:01;27.10;17.30
1021;DHT22;499;42.648;23.270;2022-09-09T12:53:31;27.00;16.40
1021;DHT22;499;42.648;23.270;2022-09-09T12:56:01;27.00;16.90
1021;DHT22;499;42.648;23.270;2022-09-09T12:58:30;27.00;17.50
1021;DHT22;499;42.648;23.270;2022-09-09T13:00:59;27.10;17.20
1021;DHT22;499;42.648;23.270;2022-09-09T13:03:27;27.10;17.60
1021;DHT22;499;42.648;23.270;2022-09-09T13:05:58;27.00;16.50
1021;DHT22;499;42.648;23.270;2022-09-09T13:08:28;26.90;17.60
1021;DHT22;499;42.648;23.270;2022-09-09T13:10:59;27.10;18.30
1021;DHT22;499;42.648;23.270;2022-09-09T13:13:35;27.00;16.40
1021;DHT22;499;42.648;23.270;2022-09-09T13:16:05;27.00;17.00
1021;DHT22;499;42.648;23.270;2022-09-09T13:18:35;27.10;17.20
1021;DHT22;499;42.648;23.270;2022-09-09T13:21:03;27.00;16.40
1021;DHT22;499;42.648;23.270;2022-09-09T13:23:34;26.90;17.00
1021;DHT22;499;42.648;23.270;2022-09-09T13:26:04;26.90;17.70
1021;DHT22;499;42.648;23.270;2022-09-09T13:28:33;27.00;18.10
1021;DHT22;499;42.648;23.270;2022-09-09T13:31:02;27.20;17.80
1021;DHT22;499;42.648;23.270;2022-09-09T13:33:32;27.30;16.90
1021;DHT22;499;42.648;23.270;2022-09-09T13:36:02;27.20;16.50
1021;DHT22;499;42.648;23.270;2022-09-09T13:38:35;26.90;17.00
1021;DHT22;499;42.648;23.270;2022-09-09T13:41:05;27.00;17.50
1021;DHT22;499;42.648;23.270;2022-09-09T13:43:36;27.00;17.50
1021;DHT22;499;42.648;23.270;2022-09-09T13:46:06;27.00;18.00
1021;DHT22;499;42.648;23.270;2022-09-09T13:48:54;27.10;17.70
1021;DHT22;499;42.648;23.270;2022-09-09T13:51:38;27.10;17.60
1021;DHT22;499;42.648;23.270;2022-09-09T13:54:12;27.20;17.00
1021;DHT22;499;42.648;23.270;2022-09-09T13:56:40;27.20;16.80
1021;DHT22;499;42.648;23.270;2022-09-09T13:59:11;27.30;16.50
1021;DHT22;499;42.648;23.270;2022-09-09T14:01:38;27.30;16.60
1021;DHT22;499;42.648;23.270;2022-09-09T14:04:06;27.50;17.00
1021;DHT22;499;42.648;23.270;2022-09-09T14:06:34;27.70;16.60
1021;DHT22;499;42.648;23.270;2022-09-09T14:09:03;27.60;15.70
1021;DHT22;499;42.648;23.270;2022-09-09T14:11:31;27.80;17.10
1021;DHT22;499;42.648;23.270;2022-09-09T14:13:58;27.80;16.60
1021;DHT22;499;42.648;23.270;2022-09-09T14:16:26;27.70;16.80
1021;DHT22;499;42.648;23.270;2022-09-09T14:18:54;27.70;15.70
1021;DHT22;499;42.648;23.270;2022-09-09T14:21:23;27.60;16.20
1021;DHT22;499;42.648;23.270;2022-09-09T14:23:50;27.50;15.90
1021;DHT22;499;42.648;23.270;2022-09-09T14:26:18;27.40;16.30
1021;DHT22;499;42.648;23.270;2022-09-09T14:28:48;27.40;17.00
1021;DHT22;499;42.648;23.270;2022-09-09T14:31:16;27.30;16.70
1021;DHT22;499;42.648;23.270;2022-09-09T14:33:43;27.30;16.40
1021;DHT22;499;42.648;23.270;2022-09-09T14:36:11;27.30;16.70
1021;DHT22;499;42.648;23.270;2022-09-09T14:38:38;27.20;16.10
1021;DHT22;499;42.648;23.270;2022-09-09T14:41:07;26.80;16.30
1021;DHT22;499;42.648;23.270;2022-09-09T14:43:37;26.60;17.30
1021;DHT22;499;42.648;23.270;2022-09-09T14:46:07;26.50;18.10
1021;DHT22;499;42.648;23.270;2022-09-09T14:48:36;26.40;18.40
1021;DHT22;499;42.648;23.270;2022-09-09T14:51:07;26.20;18.40
1021;DHT22;499;42.648;23.270;2022-09-09T14:53:36;26.20;18.60
1021;DHT22;499;42.648;23.270;2022-09-09T14:56:05;26.20;18.20
1021;DHT22;499;42.648;23.270;2022-09-09T14:58:32;26.00;19.60
1021;DHT22;499;42.648;23.270;2022-09-09T15:01:07;26.00;19.60
1021;DHT22;499;42.648;23.270;2022-09-09T15:03:35;26.00;20.20
1021;DHT22;499;42.648;23.270;2022-09-09T15:06:07;26.00;19.00
1021;DHT22;499;42.648;23.270;2022-09-09T15:08:35;25.90;19.00
1021;DHT22;499;42.648;23.270;2022-09-09T15:11:03;25.90;18.40
1021;DHT22;499;42.648;23.270;2022-09-09T15:13:33;26.00;19.20
1021;DHT22;499;42.648;23.270;2022-09-09T15:16:05;26.00;19.60
1021;DHT22;499;42.648;23.270;2022-09-09T15:18:33;25.80;22.80
1021;DHT22;499;42.648;23.270;2022-09-09T15:21:02;25.60;23.20
1021;DHT22;499;42.648;23.270;2022-09-09T15:23:31;25.60;23.00
1021;DHT22;499;42.648;23.270;2022-09-09T15:25:58;25.70;21.20
1021;DHT22;499;42.648;23.270;2022-09-09T15:28:25;25.60;21.90
1021;DHT22;499;42.648;23.270;2022-09-09T15:30:54;25.60;24.20
1021;DHT22;499;42.648;23.270;2022-09-09T15:33:24;25.70;24.70
1021;DHT22;499;42.648;23.270;2022-09-09T15:35:51;25.80;24.00
1021;DHT22;499;42.648;23.270;2022-09-09T15:38:19;25.70;21.90
1021;DHT22;499;42.648;23.270;2022-09-09T15:40:53;25.50;22.60
1021;DHT22;499;42.648;23.270;2022-09-09T15:43:24;25.40;23.30
1021;DHT22;499;42.648;23.270;2022-09-09T15:45:57;25.30;24.40
1021;DHT22;499;42.648;23.270;2022-09-09T15:48:30;25.30;25.50
1021;DHT22;499;42.648;23.270;2022-09-09T15:51:02;25.30;25.70
1021;DHT22;499;42.648;23.270;2022-09-09T15:53:29;25.20;26.00
1021;DHT22;499;42.648;23.270;2022-09-09T15:55:58;25.10;26.50
1021;DHT22;499;42.648;23.270;2022-09-09T15:58:25;24.90;27.10
1021;DHT22;499;42.648;23.270;2022-09-09T16:00:52;24.70;27.80
1021;DHT22;499;42.648;23.270;2022-09-09T16:03:19;24.60;28.70
1021;DHT22;499;42.648;23.270;2022-09-09T16:05:53;24.50;29.10
1021;DHT22;499;42.648;23.270;2022-09-09T16:08:20;24.40;29.00
1021;DHT22;499;42.648;23.270;2022-09-09T16:10:47;24.40;29.00
1021;DHT22;499;42.648;23.270;2022-09-09T16:13:14;24.30;29.00
1021;DHT22;499;42.648;23.270;2022-09-09T16:15:42;23.90;29.60
1021;DHT22;499;42.648;23.270;2022-09-09T16:18:09;24.00;29.90
1021;DHT22;499;42.648;23.270;2022-09-09T16:20:36;23.90;30.30
1021;DHT22;499;42.648;23.270;2022-09-09T16:23:07;23.80;30.90
1021;DHT22;499;42.648;23.270;2022-09-09T16:25:34;23.60;33.00
1021;DHT22;499;42.648;23.270;2022-09-09T16:28:01;23.60;33.60
1021;DHT22;499;42.648;23.270;2022-09-09T16:30:28;23.50;34.50
1021;DHT22;499;42.648;23.270;2022-09-09T16:32:55;23.40;35.20
1021;DHT22;499;42.648;23.270;2022-09-09T16:35:23;23.30;34.80